Dillon, Montana
Current Conditions -  °F | °C
As of 8:53 AM on Friday 28 Nov 2014 (Local Time) from KDLN Reporting Station
Clear Clear  
Wind Chill: 39°   Ceiling: Unl
Heat Index: 45°   Visibility: 10mi
Dew Point: 25°   Wind: 12mph
Humidity: 46%   Direction: 150°SSE
Pressure: 29.74"   Gusts: NA
Location:  45.22°N, 112.64°W
Report Text: KDLN 281553Z AUTO 15010KT 10SM CLR 07/M04 A2974 RMK AO2 SLP053 T00721039
Loading
Personal Weather Stations






























Interactive Weather Map New forecast layout! Learn more

10-Day Weather Forecast

Advertisements
Track Severe Weather on mobile